sensor_id;sensor_type;location;lat;lon;timestamp;P1;durP1;ratioP1;P2;durP2;ratioP2
14040;SDS011;7095;51.388;6.196;2023-12-04T00:01:03;31.57;;;17.00;;
14040;SDS011;7095;51.388;6.196;2023-12-04T00:03:32;31.63;;;18.37;;
14040;SDS011;7095;51.388;6.196;2023-12-04T00:06:05;34.67;;;18.87;;
14040;SDS011;7095;51.388;6.196;2023-12-04T00:08:35;32.77;;;18.07;;
14040;SDS011;7095;51.388;6.196;2023-12-04T00:11:06;37.63;;;18.40;;
14040;SDS011;7095;51.388;6.196;2023-12-04T00:13:34;36.60;;;19.33;;
14040;SDS011;7095;51.388;6.196;2023-12-04T00:16:04;32.47;;;18.10;;
14040;SDS011;7095;51.388;6.196;2023-12-04T00:18:32;30.00;;;18.03;;
14040;SDS011;7095;51.388;6.196;2023-12-04T00:21:01;31.60;;;18.30;;
14040;SDS011;7095;51.388;6.196;2023-12-04T00:23:29;34.37;;;17.90;;
14040;SDS011;7095;51.388;6.196;2023-12-04T00:25:57;36.00;;;17.90;;
14040;SDS011;7095;51.388;6.196;2023-12-04T00:28:26;32.10;;;16.93;;
14040;SDS011;7095;51.388;6.196;2023-12-04T00:30:55;28.67;;;16.43;;
14040;SDS011;7095;51.388;6.196;2023-12-04T00:33:25;31.57;;;16.43;;
14040;SDS011;7095;51.388;6.196;2023-12-04T00:35:53;31.67;;;16.30;;
14040;SDS011;7095;51.388;6.196;2023-12-04T00:38:21;27.07;;;15.47;;
14040;SDS011;7095;51.388;6.196;2023-12-04T00:40:49;28.80;;;15.90;;
14040;SDS011;7095;51.388;6.196;2023-12-04T00:43:17;29.33;;;15.47;;
14040;SDS011;7095;51.388;6.196;2023-12-04T00:45:46;31.43;;;17.03;;
14040;SDS011;7095;51.388;6.196;2023-12-04T00:48:14;27.60;;;16.47;;
14040;SDS011;7095;51.388;6.196;2023-12-04T00:50:45;31.23;;;16.03;;
14040;SDS011;7095;51.388;6.196;2023-12-04T00:53:13;29.33;;;16.47;;
14040;SDS011;7095;51.388;6.196;2023-12-04T00:55:42;30.57;;;15.93;;
14040;SDS011;7095;51.388;6.196;2023-12-04T00:58:10;27.93;;;15.23;;
14040;SDS011;7095;51.388;6.196;2023-12-04T01:00:39;24.20;;;14.70;;
14040;SDS011;7095;51.388;6.196;2023-12-04T01:03:08;29.07;;;15.37;;
14040;SDS011;7095;51.388;6.196;2023-12-04T01:05:36;27.23;;;15.37;;
14040;SDS011;7095;51.388;6.196;2023-12-04T01:08:06;28.13;;;16.77;;
14040;SDS011;7095;51.388;6.196;2023-12-04T01:10:34;24.67;;;15.23;;
14040;SDS011;7095;51.388;6.196;2023-12-04T01:13:02;29.13;;;15.90;;
14040;SDS011;7095;51.388;6.196;2023-12-04T01:15:31;27.93;;;16.07;;
14040;SDS011;7095;51.388;6.196;2023-12-04T01:17:59;28.90;;;15.57;;
14040;SDS011;7095;51.388;6.196;2023-12-04T01:20:29;29.30;;;16.47;;
14040;SDS011;7095;51.388;6.196;2023-12-04T01:22:57;27.67;;;14.53;;
14040;SDS011;7095;51.388;6.196;2023-12-04T01:25:27;25.17;;;14.00;;
14040;SDS011;7095;51.388;6.196;2023-12-04T01:27:56;26.83;;;15.27;;
14040;SDS011;7095;51.388;6.196;2023-12-04T01:30:25;24.13;;;13.93;;
14040;SDS011;7095;51.388;6.196;2023-12-04T01:32:53;24.63;;;14.57;;
14040;SDS011;7095;51.388;6.196;2023-12-04T01:35:21;21.67;;;14.07;;
14040;SDS011;7095;51.388;6.196;2023-12-04T01:37:50;25.20;;;14.77;;
14040;SDS011;7095;51.388;6.196;2023-12-04T01:40:18;24.67;;;14.93;;
14040;SDS011;7095;51.388;6.196;2023-12-04T01:42:48;30.57;;;16.23;;
14040;SDS011;7095;51.388;6.196;2023-12-04T01:45:16;23.50;;;14.13;;
14040;SDS011;7095;51.388;6.196;2023-12-04T01:47:44;27.90;;;15.47;;
14040;SDS011;7095;51.388;6.196;2023-12-04T01:50:14;25.40;;;13.70;;
14040;SDS011;7095;51.388;6.196;2023-12-04T01:52:43;24.07;;;13.83;;
14040;SDS011;7095;51.388;6.196;2023-12-04T01:55:11;23.43;;;14.27;;
14040;SDS011;7095;51.388;6.196;2023-12-04T01:57:39;23.53;;;14.60;;
14040;SDS011;7095;51.388;6.196;2023-12-04T02:00:10;21.83;;;12.73;;
14040;SDS011;7095;51.388;6.196;2023-12-04T02:02:39;22.40;;;13.90;;
14040;SDS011;7095;51.388;6.196;2023-12-04T02:05:08;22.43;;;13.87;;
14040;SDS011;7095;51.388;6.196;2023-12-04T02:07:37;22.43;;;13.80;;
14040;SDS011;7095;51.388;6.196;2023-12-04T02:10:05;23.60;;;14.07;;
14040;SDS011;7095;51.388;6.196;2023-12-04T02:12:34;26.33;;;13.93;;
14040;SDS011;7095;51.388;6.196;2023-12-04T02:15:03;24.07;;;14.00;;
14040;SDS011;7095;51.388;6.196;2023-12-04T02:17:33;23.07;;;13.83;;
14040;SDS011;7095;51.388;6.196;2023-12-04T02:20:02;26.13;;;14.47;;
14040;SDS011;7095;51.388;6.196;2023-12-04T02:22:32;24.87;;;13.60;;
14040;SDS011;7095;51.388;6.196;2023-12-04T02:25:01;22.27;;;12.67;;
14040;SDS011;7095;51.388;6.196;2023-12-04T02:27:33;25.40;;;14.00;;
14040;SDS011;7095;51.388;6.196;2023-12-04T02:30:02;28.10;;;14.37;;
14040;SDS011;7095;51.388;6.196;2023-12-04T02:32:33;24.13;;;13.57;;
14040;SDS011;7095;51.388;6.196;2023-12-04T02:35:03;20.27;;;12.57;;
14040;SDS011;7095;51.388;6.196;2023-12-04T02:37:32;23.17;;;13.03;;
14040;SDS011;7095;51.388;6.196;2023-12-04T02:40:02;20.50;;;11.70;;
14040;SDS011;7095;51.388;6.196;2023-12-04T02:42:31;23.13;;;12.70;;
14040;SDS011;7095;51.388;6.196;2023-12-04T02:45:00;20.60;;;12.27;;
14040;SDS011;7095;51.388;6.196;2023-12-04T02:47:29;21.40;;;12.83;;
14040;SDS011;7095;51.388;6.196;2023-12-04T02:49:57;23.83;;;13.43;;
14040;SDS011;7095;51.388;6.196;2023-12-04T02:52:26;19.00;;;12.60;;
14040;SDS011;7095;51.388;6.196;2023-12-04T02:54:54;24.63;;;12.87;;
14040;SDS011;7095;51.388;6.196;2023-12-04T02:57:24;23.70;;;13.43;;
14040;SDS011;7095;51.388;6.196;2023-12-04T02:59:53;21.20;;;12.60;;
14040;SDS011;7095;51.388;6.196;2023-12-04T03:02:21;23.63;;;13.63;;
14040;SDS011;7095;51.388;6.196;2023-12-04T03:04:51;21.57;;;12.83;;
14040;SDS011;7095;51.388;6.196;2023-12-04T03:07:19;20.33;;;12.47;;
14040;SDS011;7095;51.388;6.196;2023-12-04T03:09:51;20.37;;;12.23;;
14040;SDS011;7095;51.388;6.196;2023-12-04T03:12:19;21.30;;;12.97;;
14040;SDS011;7095;51.388;6.196;2023-12-04T03:14:49;19.70;;;12.93;;
14040;SDS011;7095;51.388;6.196;2023-12-04T03:17:17;21.97;;;12.37;;
14040;SDS011;7095;51.388;6.196;2023-12-04T03:19:45;20.60;;;12.27;;
14040;SDS011;7095;51.388;6.196;2023-12-04T03:22:14;16.87;;;11.27;;
14040;SDS011;7095;51.388;6.196;2023-12-04T03:24:42;20.87;;;13.17;;
14040;SDS011;7095;51.388;6.196;2023-12-04T03:27:10;19.53;;;11.93;;
14040;SDS011;7095;51.388;6.196;2023-12-04T03:29:39;21.07;;;11.87;;
14040;SDS011;7095;51.388;6.196;2023-12-04T03:32:08;22.13;;;12.73;;
14040;SDS011;7095;51.388;6.196;2023-12-04T03:34:37;19.83;;;12.20;;
14040;SDS011;7095;51.388;6.196;2023-12-04T03:37:05;23.93;;;13.33;;
14040;SDS011;7095;51.388;6.196;2023-12-04T03:39:33;19.53;;;11.90;;
14040;SDS011;7095;51.388;6.196;2023-12-04T03:42:02;16.87;;;10.87;;
14040;SDS011;7095;51.388;6.196;2023-12-04T03:44:30;20.27;;;12.63;;
14040;SDS011;7095;51.388;6.196;2023-12-04T03:46:58;20.30;;;11.97;;
14040;SDS011;7095;51.388;6.196;2023-12-04T03:49:28;20.03;;;11.77;;
14040;SDS011;7095;51.388;6.196;2023-12-04T03:51:56;19.23;;;11.87;;
14040;SDS011;7095;51.388;6.196;2023-12-04T03:54:24;21.40;;;12.13;;
14040;SDS011;7095;51.388;6.196;2023-12-04T03:56:53;18.20;;;11.03;;
14040;SDS011;7095;51.388;6.196;2023-12-04T03:59:21;19.13;;;11.60;;
14040;SDS011;7095;51.388;6.196;2023-12-04T04:01:50;20.37;;;12.13;;
14040;SDS011;7095;51.388;6.196;2023-12-04T04:04:19;17.50;;;11.93;;
14040;SDS011;7095;51.388;6.196;2023-12-04T04:06:49;18.37;;;12.33;;
14040;SDS011;7095;51.388;6.196;2023-12-04T04:09:17;18.93;;;11.60;;
14040;SDS011;7095;51.388;6.196;2023-12-04T04:11:46;19.30;;;12.07;;
14040;SDS011;7095;51.388;6.196;2023-12-04T04:14:17;19.93;;;11.93;;
14040;SDS011;7095;51.388;6.196;2023-12-04T04:16:45;16.67;;;10.53;;
14040;SDS011;7095;51.388;6.196;2023-12-04T04:19:13;18.33;;;11.70;;
14040;SDS011;7095;51.388;6.196;2023-12-04T04:21:42;17.37;;;11.50;;
14040;SDS011;7095;51.388;6.196;2023-12-04T04:24:12;16.17;;;10.93;;
14040;SDS011;7095;51.388;6.196;2023-12-04T04:26:40;17.40;;;11.23;;
14040;SDS011;7095;51.388;6.196;2023-12-04T04:29:09;20.67;;;11.03;;
14040;SDS011;7095;51.388;6.196;2023-12-04T04:31:37;21.97;;;11.33;;
14040;SDS011;7095;51.388;6.196;2023-12-04T04:34:05;18.53;;;11.17;;
14040;SDS011;7095;51.388;6.196;2023-12-04T04:36:33;15.93;;;10.67;;
14040;SDS011;7095;51.388;6.196;2023-12-04T04:39:03;21.07;;;11.17;;
14040;SDS011;7095;51.388;6.196;2023-12-04T04:41:36;15.27;;;10.17;;
14040;SDS011;7095;51.388;6.196;2023-12-04T04:44:04;15.47;;;11.27;;
14040;SDS011;7095;51.388;6.196;2023-12-04T04:46:33;16.00;;;10.30;;
14040;SDS011;7095;51.388;6.196;2023-12-04T04:49:01;18.43;;;11.00;;
14040;SDS011;7095;51.388;6.196;2023-12-04T04:51:33;17.90;;;11.70;;
14040;SDS011;7095;51.388;6.196;2023-12-04T04:54:02;16.80;;;10.57;;
14040;SDS011;7095;51.388;6.196;2023-12-04T04:56:30;17.03;;;10.20;;
14040;SDS011;7095;51.388;6.196;2023-12-04T04:59:01;18.23;;;10.83;;
14040;SDS011;7095;51.388;6.196;2023-12-04T05:01:29;16.40;;;10.27;;
14040;SDS011;7095;51.388;6.196;2023-12-04T05:03:57;15.90;;;9.80;;
14040;SDS011;7095;51.388;6.196;2023-12-04T05:06:26;16.53;;;10.30;;
14040;SDS011;7095;51.388;6.196;2023-12-04T05:08:54;16.17;;;9.63;;
14040;SDS011;7095;51.388;6.196;2023-12-04T05:11:22;17.47;;;10.20;;
14040;SDS011;7095;51.388;6.196;2023-12-04T05:13:51;19.03;;;10.33;;
14040;SDS011;7095;51.388;6.196;2023-12-04T05:16:21;16.37;;;10.57;;
14040;SDS011;7095;51.388;6.196;2023-12-04T05:18:49;15.20;;;9.77;;
14040;SDS011;7095;51.388;6.196;2023-12-04T05:21:17;15.40;;;8.93;;
14040;SDS011;7095;51.388;6.196;2023-12-04T05:23:45;17.83;;;9.47;;
14040;SDS011;7095;51.388;6.196;2023-12-04T05:26:14;15.10;;;9.47;;
14040;SDS011;7095;51.388;6.196;2023-12-04T05:28:42;13.33;;;9.57;;
14040;SDS011;7095;51.388;6.196;2023-12-04T05:31:10;14.50;;;10.10;;
14040;SDS011;7095;51.388;6.196;2023-12-04T05:33:40;14.37;;;9.60;;
14040;SDS011;7095;51.388;6.196;2023-12-04T05:36:11;15.33;;;9.93;;
14040;SDS011;7095;51.388;6.196;2023-12-04T05:38:39;13.77;;;9.20;;
14040;SDS011;7095;51.388;6.196;2023-12-04T05:41:08;14.80;;;9.13;;
14040;SDS011;7095;51.388;6.196;2023-12-04T05:43:36;14.43;;;9.70;;
14040;SDS011;7095;51.388;6.196;2023-12-04T05:46:04;13.10;;;8.50;;
14040;SDS011;7095;51.388;6.196;2023-12-04T05:48:33;14.87;;;8.67;;
14040;SDS011;7095;51.388;6.196;2023-12-04T05:51:03;14.67;;;9.37;;
14040;SDS011;7095;51.388;6.196;2023-12-04T05:53:32;14.70;;;9.17;;
14040;SDS011;7095;51.388;6.196;2023-12-04T05:56:00;14.70;;;9.20;;
14040;SDS011;7095;51.388;6.196;2023-12-04T05:58:29;14.40;;;9.00;;
14040;SDS011;7095;51.388;6.196;2023-12-04T06:00:57;13.20;;;8.83;;
14040;SDS011;7095;51.388;6.196;2023-12-04T06:03:25;14.83;;;9.30;;
14040;SDS011;7095;51.388;6.196;2023-12-04T06:05:53;15.70;;;8.90;;
14040;SDS011;7095;51.388;6.196;2023-12-04T06:08:26;14.03;;;9.40;;
14040;SDS011;7095;51.388;6.196;2023-12-04T06:10:54;14.60;;;9.37;;
14040;SDS011;7095;51.388;6.196;2023-12-04T06:13:22;16.70;;;8.93;;
14040;SDS011;7095;51.388;6.196;2023-12-04T06:15:51;12.57;;;8.73;;
14040;SDS011;7095;51.388;6.196;2023-12-04T06:18:19;14.17;;;8.37;;
14040;SDS011;7095;51.388;6.196;2023-12-04T06:20:48;14.47;;;8.60;;
14040;SDS011;7095;51.388;6.196;2023-12-04T06:23:16;12.10;;;8.60;;
14040;SDS011;7095;51.388;6.196;2023-12-04T06:25:46;12.23;;;7.93;;
14040;SDS011;7095;51.388;6.196;2023-12-04T06:28:15;14.90;;;9.27;;
14040;SDS011;7095;51.388;6.196;2023-12-04T06:30:43;15.47;;;8.47;;
14040;SDS011;7095;51.388;6.196;2023-12-04T06:33:12;14.93;;;8.97;;
14040;SDS011;7095;51.388;6.196;2023-12-04T06:35:41;15.17;;;9.37;;
14040;SDS011;7095;51.388;6.196;2023-12-04T06:38:10;14.10;;;8.43;;
14040;SDS011;7095;51.388;6.196;2023-12-04T06:40:42;13.53;;;8.50;;
14040;SDS011;7095;51.388;6.196;2023-12-04T06:43:12;13.23;;;8.63;;
14040;SDS011;7095;51.388;6.196;2023-12-04T06:45:43;14.40;;;9.17;;
14040;SDS011;7095;51.388;6.196;2023-12-04T06:48:11;16.00;;;9.47;;
14040;SDS011;7095;51.388;6.196;2023-12-04T06:50:40;17.77;;;10.13;;
14040;SDS011;7095;51.388;6.196;2023-12-04T06:53:09;14.40;;;8.93;;
14040;SDS011;7095;51.388;6.196;2023-12-04T06:55:37;15.73;;;10.03;;
14040;SDS011;7095;51.388;6.196;2023-12-04T06:58:05;18.97;;;9.87;;
14040;SDS011;7095;51.388;6.196;2023-12-04T07:00:35;13.23;;;9.07;;
14040;SDS011;7095;51.388;6.196;2023-12-04T07:03:03;14.77;;;9.60;;
14040;SDS011;7095;51.388;6.196;2023-12-04T07:05:31;16.00;;;9.80;;
14040;SDS011;7095;51.388;6.196;2023-12-04T07:08:00;14.87;;;9.57;;
14040;SDS011;7095;51.388;6.196;2023-12-04T07:10:29;14.90;;;9.93;;
14040;SDS011;7095;51.388;6.196;2023-12-04T07:13:01;16.30;;;10.17;;
14040;SDS011;7095;51.388;6.196;2023-12-04T07:15:29;15.17;;;10.23;;
14040;SDS011;7095;51.388;6.196;2023-12-04T07:17:59;15.53;;;9.90;;
14040;SDS011;7095;51.388;6.196;2023-12-04T07:20:27;13.93;;;9.80;;
14040;SDS011;7095;51.388;6.196;2023-12-04T07:22:55;14.67;;;9.67;;
14040;SDS011;7095;51.388;6.196;2023-12-04T07:25:25;16.50;;;11.03;;
14040;SDS011;7095;51.388;6.196;2023-12-04T07:27:53;14.83;;;10.50;;
14040;SDS011;7095;51.388;6.196;2023-12-04T07:30:21;13.67;;;10.03;;
14040;SDS011;7095;51.388;6.196;2023-12-04T07:32:49;15.83;;;10.27;;
14040;SDS011;7095;51.388;6.196;2023-12-04T07:35:19;15.80;;;10.30;;
14040;SDS011;7095;51.388;6.196;2023-12-04T07:37:47;15.67;;;10.43;;
14040;SDS011;7095;51.388;6.196;2023-12-04T07:40:16;21.77;;;11.43;;
14040;SDS011;7095;51.388;6.196;2023-12-04T07:42:44;17.17;;;10.47;;
14040;SDS011;7095;51.388;6.196;2023-12-04T07:45:12;18.17;;;11.63;;
14040;SDS011;7095;51.388;6.196;2023-12-04T07:47:42;18.00;;;10.90;;
14040;SDS011;7095;51.388;6.196;2023-12-04T07:50:11;20.47;;;10.90;;
14040;SDS011;7095;51.388;6.196;2023-12-04T07:52:40;15.73;;;10.87;;
14040;SDS011;7095;51.388;6.196;2023-12-04T07:55:09;14.10;;;9.67;;
14040;SDS011;7095;51.388;6.196;2023-12-04T07:57:37;18.70;;;10.93;;
14040;SDS011;7095;51.388;6.196;2023-12-04T08:00:06;18.83;;;10.93;;
14040;SDS011;7095;51.388;6.196;2023-12-04T08:02:35;15.33;;;10.70;;
14040;SDS011;7095;51.388;6.196;2023-12-04T08:05:03;18.47;;;11.57;;
14040;SDS011;7095;51.388;6.196;2023-12-04T08:07:31;18.00;;;12.13;;
14040;SDS011;7095;51.388;6.196;2023-12-04T08:10:01;19.53;;;11.80;;
14040;SDS011;7095;51.388;6.196;2023-12-04T08:12:30;18.13;;;10.33;;
14040;SDS011;7095;51.388;6.196;2023-12-04T08:14:58;18.17;;;10.73;;
14040;SDS011;7095;51.388;6.196;2023-12-04T08:17:26;16.87;;;10.30;;
14040;SDS011;7095;51.388;6.196;2023-12-04T08:19:54;16.60;;;11.13;;
14040;SDS011;7095;51.388;6.196;2023-12-04T08:22:23;15.53;;;11.23;;
14040;SDS011;7095;51.388;6.196;2023-12-04T08:24:51;17.10;;;10.23;;
14040;SDS011;7095;51.388;6.196;2023-12-04T08:27:21;18.67;;;11.33;;
14040;SDS011;7095;51.388;6.196;2023-12-04T08:29:49;17.37;;;12.07;;
14040;SDS011;7095;51.388;6.196;2023-12-04T08:32:18;16.17;;;10.37;;
14040;SDS011;7095;51.388;6.196;2023-12-04T08:34:48;16.93;;;11.10;;
14040;SDS011;7095;51.388;6.196;2023-12-04T08:37:16;19.33;;;12.27;;
14040;SDS011;7095;51.388;6.196;2023-12-04T08:39:45;18.83;;;11.60;;
14040;SDS011;7095;51.388;6.196;2023-12-04T08:42:14;18.07;;;11.93;;
14040;SDS011;7095;51.388;6.196;2023-12-04T08:44:50;19.73;;;12.30;;
14040;SDS011;7095;51.388;6.196;2023-12-04T08:47:19;20.90;;;13.30;;
14040;SDS011;7095;51.388;6.196;2023-12-04T08:49:47;18.07;;;12.40;;
14040;SDS011;7095;51.388;6.196;2023-12-04T08:52:15;20.07;;;13.23;;
14040;SDS011;7095;51.388;6.196;2023-12-04T08:54:44;19.03;;;12.70;;
14040;SDS011;7095;51.388;6.196;2023-12-04T08:57:12;20.43;;;13.20;;
14040;SDS011;7095;51.388;6.196;2023-12-04T08:59:41;18.07;;;12.23;;
14040;SDS011;7095;51.388;6.196;2023-12-04T09:02:11;21.47;;;12.80;;
14040;SDS011;7095;51.388;6.196;2023-12-04T09:04:41;17.43;;;11.83;;
14040;SDS011;7095;51.388;6.196;2023-12-04T09:07:10;18.57;;;11.77;;
14040;SDS011;7095;51.388;6.196;2023-12-04T09:09:59;18.47;;;12.53;;
14040;SDS011;7095;51.388;6.196;2023-12-04T09:12:36;18.07;;;12.10;;
14040;SDS011;7095;51.388;6.196;2023-12-04T09:15:05;21.60;;;12.83;;
14040;SDS011;7095;51.388;6.196;2023-12-04T09:17:36;20.03;;;12.43;;
14040;SDS011;7095;51.388;6.196;2023-12-04T09:20:06;18.43;;;12.57;;
14040;SDS011;7095;51.388;6.196;2023-12-04T09:22:34;17.63;;;11.23;;
14040;SDS011;7095;51.388;6.196;2023-12-04T09:25:18;18.93;;;11.90;;
14040;SDS011;7095;51.388;6.196;2023-12-04T09:27:46;16.90;;;11.83;;
14040;SDS011;7095;51.388;6.196;2023-12-04T09:30:14;19.00;;;11.40;;
14040;SDS011;7095;51.388;6.196;2023-12-04T09:32:44;18.80;;;11.97;;
14040;SDS011;7095;51.388;6.196;2023-12-04T09:35:12;18.07;;;11.80;;
14040;SDS011;7095;51.388;6.196;2023-12-04T09:37:42;17.00;;;10.47;;
14040;SDS011;7095;51.388;6.196;2023-12-04T09:40:10;20.10;;;11.93;;
14040;SDS011;7095;51.388;6.196;2023-12-04T09:42:38;17.70;;;10.70;;
14040;SDS011;7095;51.388;6.196;2023-12-04T09:45:07;16.43;;;10.73;;
14040;SDS011;7095;51.388;6.196;2023-12-04T09:47:36;16.20;;;11.33;;
14040;SDS011;7095;51.388;6.196;2023-12-04T09:50:07;19.77;;;11.93;;
14040;SDS011;7095;51.388;6.196;2023-12-04T09:52:36;17.40;;;11.37;;
14040;SDS011;7095;51.388;6.196;2023-12-04T09:55:04;19.57;;;11.60;;
14040;SDS011;7095;51.388;6.196;2023-12-04T09:57:33;18.60;;;11.57;;
14040;SDS011;7095;51.388;6.196;2023-12-04T10:00:02;16.77;;;10.90;;
14040;SDS011;7095;51.388;6.196;2023-12-04T10:02:40;21.67;;;11.93;;
14040;SDS011;7095;51.388;6.196;2023-12-04T10:05:11;18.20;;;11.60;;
14040;SDS011;7095;51.388;6.196;2023-12-04T10:07:40;15.40;;;10.30;;
14040;SDS011;7095;51.388;6.196;2023-12-04T10:10:08;15.97;;;11.00;;
14040;SDS011;7095;51.388;6.196;2023-12-04T10:12:37;21.13;;;11.90;;
14040;SDS011;7095;51.388;6.196;2023-12-04T10:15:07;16.13;;;11.37;;
14040;SDS011;7095;51.388;6.196;2023-12-04T10:17:36;15.20;;;11.07;;
14040;SDS011;7095;51.388;6.196;2023-12-04T10:20:05;19.57;;;11.17;;
14040;SDS011;7095;51.388;6.196;2023-12-04T10:22:42;17.70;;;11.03;;
14040;SDS011;7095;51.388;6.196;2023-12-04T10:25:19;15.73;;;9.83;;
14040;SDS011;7095;51.388;6.196;2023-12-04T10:27:48;16.50;;;10.73;;
14040;SDS011;7095;51.388;6.196;2023-12-04T10:30:23;18.13;;;11.50;;
14040;SDS011;7095;51.388;6.196;2023-12-04T10:32:55;14.67;;;11.00;;
14040;SDS011;7095;51.388;6.196;2023-12-04T10:35:31;16.93;;;11.03;;
14040;SDS011;7095;51.388;6.196;2023-12-04T10:38:01;18.73;;;10.20;;
14040;SDS011;7095;51.388;6.196;2023-12-04T10:40:30;15.37;;;9.90;;
14040;SDS011;7095;51.388;6.196;2023-12-04T10:43:11;14.93;;;9.60;;
14040;SDS011;7095;51.388;6.196;2023-12-04T10:45:40;15.67;;;10.33;;
14040;SDS011;7095;51.388;6.196;2023-12-04T10:48:09;17.63;;;11.00;;
14040;SDS011;7095;51.388;6.196;2023-12-04T10:50:38;16.50;;;10.43;;
14040;SDS011;7095;51.388;6.196;2023-12-04T10:53:08;16.03;;;10.73;;
14040;SDS011;7095;51.388;6.196;2023-12-04T10:55:37;16.83;;;11.00;;
14040;SDS011;7095;51.388;6.196;2023-12-04T10:58:06;17.13;;;10.73;;
14040;SDS011;7095;51.388;6.196;2023-12-04T11:00:36;16.70;;;10.30;;
14040;SDS011;7095;51.388;6.196;2023-12-04T11:03:07;17.33;;;10.77;;
14040;SDS011;7095;51.388;6.196;2023-12-04T11:05:37;17.90;;;11.23;;
14040;SDS011;7095;51.388;6.196;2023-12-04T11:08:05;16.60;;;10.80;;
14040;SDS011;7095;51.388;6.196;2023-12-04T11:10:47;18.03;;;10.90;;
14040;SDS011;7095;51.388;6.196;2023-12-04T11:13:17;20.23;;;10.93;;
14040;SDS011;7095;51.388;6.196;2023-12-04T11:15:47;17.73;;;9.93;;
14040;SDS011;7095;51.388;6.196;2023-12-04T11:18:18;19.07;;;11.67;;
14040;SDS011;7095;51.388;6.196;2023-12-04T11:20:51;17.83;;;11.27;;
14040;SDS011;7095;51.388;6.196;2023-12-04T11:23:23;16.70;;;11.10;;
14040;SDS011;7095;51.388;6.196;2023-12-04T11:25:53;16.43;;;11.13;;
14040;SDS011;7095;51.388;6.196;2023-12-04T11:28:22;20.13;;;12.00;;
14040;SDS011;7095;51.388;6.196;2023-12-04T11:30:50;17.80;;;11.20;;
14040;SDS011;7095;51.388;6.196;2023-12-04T11:33:19;21.47;;;11.50;;
14040;SDS011;7095;51.388;6.196;2023-12-04T11:35:48;18.23;;;12.03;;
14040;SDS011;7095;51.388;6.196;2023-12-04T11:38:17;18.53;;;12.23;;
14040;SDS011;7095;51.388;6.196;2023-12-04T11:40:45;18.37;;;12.10;;
14040;SDS011;7095;51.388;6.196;2023-12-04T11:43:25;18.90;;;11.67;;
14040;SDS011;7095;51.388;6.196;2023-12-04T11:45:58;15.70;;;11.27;;
14040;SDS011;7095;51.388;6.196;2023-12-04T11:48:36;16.10;;;11.20;;
14040;SDS011;7095;51.388;6.196;2023-12-04T11:51:05;18.37;;;10.87;;
14040;SDS011;7095;51.388;6.196;2023-12-04T11:53:37;20.63;;;11.50;;
14040;SDS011;7095;51.388;6.196;2023-12-04T11:56:09;18.50;;;11.90;;
14040;SDS011;7095;51.388;6.196;2023-12-04T11:58:45;20.90;;;11.20;;
14040;SDS011;7095;51.388;6.196;2023-12-04T12:01:13;17.50;;;11.37;;
14040;SDS011;7095;51.388;6.196;2023-12-04T12:03:44;18.27;;;11.70;;
14040;SDS011;7095;51.388;6.196;2023-12-04T12:06:13;19.37;;;12.50;;
14040;SDS011;7095;51.388;6.196;2023-12-04T12:08:41;18.87;;;11.50;;
14040;SDS011;7095;51.388;6.196;2023-12-04T12:11:10;17.17;;;11.47;;
14040;SDS011;7095;51.388;6.196;2023-12-04T12:13:40;20.33;;;10.90;;
14040;SDS011;7095;51.388;6.196;2023-12-04T12:16:10;18.70;;;11.63;;
14040;SDS011;7095;51.388;6.196;2023-12-04T12:18:40;16.23;;;11.13;;
14040;SDS011;7095;51.388;6.196;2023-12-04T12:21:08;18.03;;;10.37;;
14040;SDS011;7095;51.388;6.196;2023-12-04T12:23:37;17.80;;;11.40;;
14040;SDS011;7095;51.388;6.196;2023-12-04T12:26:05;17.23;;;11.43;;
14040;SDS011;7095;51.388;6.196;2023-12-04T12:28:34;18.17;;;12.13;;
14040;SDS011;7095;51.388;6.196;2023-12-04T12:31:02;17.60;;;10.83;;
14040;SDS011;7095;51.388;6.196;2023-12-04T12:33:32;16.90;;;11.47;;
14040;SDS011;7095;51.388;6.196;2023-12-04T12:36:01;17.33;;;11.33;;
14040;SDS011;7095;51.388;6.196;2023-12-04T12:38:31;20.07;;;11.97;;
14040;SDS011;7095;51.388;6.196;2023-12-04T12:41:05;19.77;;;11.63;;
14040;SDS011;7095;51.388;6.196;2023-12-04T12:43:35;18.00;;;12.17;;
14040;SDS011;7095;51.388;6.196;2023-12-04T12:46:04;18.00;;;12.37;;
14040;SDS011;7095;51.388;6.196;2023-12-04T12:48:34;17.77;;;12.80;;
14040;SDS011;7095;51.388;6.196;2023-12-04T12:51:03;20.27;;;12.30;;
14040;SDS011;7095;51.388;6.196;2023-12-04T12:53:32;19.03;;;11.07;;
14040;SDS011;7095;51.388;6.196;2023-12-04T12:56:01;21.33;;;13.40;;
14040;SDS011;7095;51.388;6.196;2023-12-04T12:58:29;18.93;;;12.87;;
14040;SDS011;7095;51.388;6.196;2023-12-04T13:00:59;21.03;;;13.30;;
14040;SDS011;7095;51.388;6.196;2023-12-04T13:03:28;19.17;;;12.73;;
14040;SDS011;7095;51.388;6.196;2023-12-04T13:05:59;18.60;;;12.23;;
14040;SDS011;7095;51.388;6.196;2023-12-04T13:08:28;17.03;;;12.03;;
14040;SDS011;7095;51.388;6.196;2023-12-04T13:10:57;20.43;;;12.47;;
14040;SDS011;7095;51.388;6.196;2023-12-04T13:13:25;20.60;;;12.53;;
14040;SDS011;7095;51.388;6.196;2023-12-04T13:15:53;20.20;;;13.37;;
14040;SDS011;7095;51.388;6.196;2023-12-04T13:18:23;19.13;;;12.57;;
14040;SDS011;7095;51.388;6.196;2023-12-04T13:20:51;25.07;;;13.57;;
14040;SDS011;7095;51.388;6.196;2023-12-04T13:23:21;18.87;;;12.73;;
14040;SDS011;7095;51.388;6.196;2023-12-04T13:25:51;21.80;;;14.10;;
14040;SDS011;7095;51.388;6.196;2023-12-04T13:28:22;23.67;;;14.30;;
14040;SDS011;7095;51.388;6.196;2023-12-04T13:31:02;20.00;;;12.73;;
14040;SDS011;7095;51.388;6.196;2023-12-04T13:33:30;20.53;;;12.77;;
14040;SDS011;7095;51.388;6.196;2023-12-04T13:35:59;22.50;;;13.77;;
14040;SDS011;7095;51.388;6.196;2023-12-04T13:38:29;21.63;;;13.50;;
14040;SDS011;7095;51.388;6.196;2023-12-04T13:41:03;19.63;;;13.27;;
14040;SDS011;7095;51.388;6.196;2023-12-04T13:43:56;22.20;;;12.97;;
14040;SDS011;7095;51.388;6.196;2023-12-04T13:46:26;19.00;;;12.93;;
14040;SDS011;7095;51.388;6.196;2023-12-04T13:48:57;22.87;;;13.83;;
14040;SDS011;7095;51.388;6.196;2023-12-04T13:51:25;22.53;;;13.60;;
14040;SDS011;7095;51.388;6.196;2023-12-04T13:53:55;20.23;;;13.50;;
14040;SDS011;7095;51.388;6.196;2023-12-04T13:56:30;24.43;;;15.20;;
14040;SDS011;7095;51.388;6.196;2023-12-04T13:59:11;23.57;;;13.83;;
14040;SDS011;7095;51.388;6.196;2023-12-04T14:01:47;19.90;;;12.13;;
14040;SDS011;7095;51.388;6.196;2023-12-04T14:04:17;22.07;;;13.37;;
14040;SDS011;7095;51.388;6.196;2023-12-04T14:06:45;22.10;;;13.10;;
14040;SDS011;7095;51.388;6.196;2023-12-04T14:09:16;21.97;;;13.23;;
14040;SDS011;7095;51.388;6.196;2023-12-04T14:11:44;22.93;;;13.90;;
14040;SDS011;7095;51.388;6.196;2023-12-04T14:14:12;18.17;;;11.80;;
14040;SDS011;7095;51.388;6.196;2023-12-04T14:16:40;23.47;;;12.57;;
14040;SDS011;7095;51.388;6.196;2023-12-04T14:19:09;18.93;;;12.37;;
14040;SDS011;7095;51.388;6.196;2023-12-04T14:21:39;18.57;;;11.87;;
14040;SDS011;7095;51.388;6.196;2023-12-04T14:24:07;22.50;;;12.57;;
14040;SDS011;7095;51.388;6.196;2023-12-04T14:26:37;23.10;;;12.53;;
14040;SDS011;7095;51.388;6.196;2023-12-04T14:29:05;22.27;;;12.80;;
14040;SDS011;7095;51.388;6.196;2023-12-04T14:31:34;22.67;;;13.23;;
14040;SDS011;7095;51.388;6.196;2023-12-04T14:34:04;19.27;;;12.93;;
14040;SDS011;7095;51.388;6.196;2023-12-04T14:36:32;21.13;;;12.00;;
14040;SDS011;7095;51.388;6.196;2023-12-04T14:39:01;20.60;;;12.87;;
14040;SDS011;7095;51.388;6.196;2023-12-04T14:41:30;22.50;;;13.37;;
14040;SDS011;7095;51.388;6.196;2023-12-04T14:43:59;21.37;;;12.63;;
14040;SDS011;7095;51.388;6.196;2023-12-04T14:46:28;16.97;;;11.67;;
14040;SDS011;7095;51.388;6.196;2023-12-04T14:48:56;19.80;;;12.47;;